Time;durP1;ratioP1;P1;durP2;ratioP2;P2;SDS_P1;SDS_P2;PMS_P1;PMS_P2;Temp;Humidity;BMP_temperature;BMP_pressure;BME280_temperature;BME280_humidity;BME280_pressure;Samples;Min_cycle;Max_cycle;Signal;HPM_P1;HPM_P2
2022/12/11 01:01:37;;;;;;;32.10;4.23;;;;;;;16.81;nan;100609.44;6156386;23;20871;-95
2022/12/11 01:11:44;;;;;;;39.23;5.37;;;;;;;16.92;nan;100583.78;6198869;23;20363;-95
2022/12/11 01:14:14;;;;;;;36.97;4.27;;;;;;;16.89;nan;100588.94;6141548;23;20481;-94
2022/12/11 01:16:52;;;;;;;40.13;5.07;;;;;;;16.97;nan;100588.56;6137465;23;20416;-94
2022/12/11 01:19:36;;;;;;;52.53;5.80;;;;;;;17.03;nan;100587.63;6137888;23;20474;-91
2022/12/11 01:22:07;;;;;;;33.13;4.60;;;;;;;16.97;nan;100566.47;6163285;23;20450;-96
2022/12/11 01:24:57;;;;;;;37.00;4.77;;;;;;;17.09;nan;100559.06;6136908;23;20441;-96
2022/12/11 01:31:21;;;;;;;40.83;3.93;;;;;;;17.13;nan;100543.66;6189769;23;20355;-93
2022/12/11 01:34:20;;;;;;;56.67;4.97;;;;;;;17.13;nan;100540.88;6161206;23;20411;-95
2022/12/11 01:36:50;;;;;;;41.33;5.27;;;;;;;17.10;nan;100530.34;6160780;23;20416;-90
2022/12/11 01:39:17;;;;;;;47.67;6.17;;;;;;;17.14;nan;100526.00;6160145;23;20890;-90
2022/12/11 01:41:45;;;;;;;48.00;4.70;;;;;;;17.15;nan;100527.69;6159746;23;20415;-89
2022/12/11 01:44:13;;;;;;;40.37;4.73;;;;;;;17.21;nan;100531.41;6112335;23;20436;-91
2022/12/11 01:46:42;;;;;;;38.73;4.87;;;;;;;17.20;nan;100525.03;6184617;23;20979;-90
2022/12/11 01:49:23;;;;;;;39.37;4.90;;;;;;;17.24;nan;100517.97;6136357;23;20446;-90
2022/12/11 01:52:00;;;;;;;46.03;5.20;;;;;;;17.25;nan;100516.88;6159245;23;20418;-91
2022/12/11 01:54:28;;;;;;;51.47;4.93;;;;;;;17.27;nan;100523.00;6136604;23;20400;-89
2022/12/11 01:57:06;;;;;;;42.27;6.07;;;;;;;17.29;nan;100516.38;6111819;23;20416;-89
2022/12/11 01:59:43;;;;;;;50.50;7.67;;;;;;;17.24;nan;100501.38;6135020;23;20400;-90
2022/12/11 02:02:34;;;;;;;45.60;5.53;;;;;;;17.32;nan;100510.38;6135894;23;20430;-89
2022/12/11 02:05:02;;;;;;;36.93;6.23;;;;;;;17.37;nan;100493.88;6158726;23;20519;-88
2022/12/11 02:07:35;;;;;;;53.87;6.20;;;;;;;17.38;nan;100487.28;5996038;23;20422;-89
2022/12/11 02:10:03;;;;;;;44.53;5.23;;;;;;;17.41;nan;100506.97;6066631;23;20467;-88
2022/12/11 02:12:57;;;;;;;51.93;6.27;;;;;;;17.43;nan;100495.69;6065964;23;20491;-89
2022/12/11 02:16:10;;;;;;;45.17;4.83;;;;;;;17.45;nan;100482.47;6039818;23;20479;-90
2022/12/11 02:18:56;;;;;;;51.83;6.47;;;;;;;17.50;nan;100485.34;5986502;23;20761;-92
2022/12/11 02:21:48;;;;;;;60.47;5.93;;;;;;;17.52;nan;100477.63;6012828;23;20701;-94
2022/12/11 02:24:40;;;;;;;55.13;7.43;;;;;;;17.53;nan;100471.00;5990254;23;20982;-94
2022/12/11 02:27:48;;;;;;;58.50;5.90;;;;;;;17.54;nan;100473.53;6011905;23;20417;-92
2022/12/11 02:31:09;;;;;;;83.77;8.33;;;;;;;17.59;nan;100467.28;6013697;23;20442;-94
2022/12/11 02:34:01;;;;;;;52.23;5.90;;;;;;;17.61;nan;100454.88;6100128;23;20421;-94
2022/12/11 02:36:33;;;;;;;50.10;7.10;;;;;;;17.51;nan;100446.38;6146480;23;20416;-94
2022/12/11 02:39:02;;;;;;;53.60;5.80;;;;;;;17.61;nan;100454.88;6142402;23;20411;-93
2022/12/11 02:41:31;;;;;;;37.23;4.73;;;;;;;17.66;nan;100465.22;6120094;23;20416;-94
2022/12/11 02:44:04;;;;;;;62.53;6.70;;;;;;;17.69;nan;100450.09;6145310;23;20463;-93
2022/12/11 02:46:39;;;;;;;70.23;6.87;;;;;;;17.64;nan;100450.81;6169674;23;20424;-94
2022/12/11 02:49:10;;;;;;;64.17;6.67;;;;;;;17.76;nan;100473.72;6144648;23;20411;-93
2022/12/11 02:51:40;;;;;;;50.00;5.90;;;;;;;17.68;nan;100445.63;6145314;23;20396;-92
2022/12/11 02:54:19;;;;;;;53.50;5.73;;;;;;;17.82;nan;100450.59;6143402;23;20408;-93
2022/12/11 02:56:50;;;;;;;43.47;5.00;;;;;;;17.70;nan;100438.78;6195350;23;20411;-92
2022/12/11 02:59:25;;;;;;;47.23;5.57;;;;;;;17.69;nan;100434.34;6123367;23;20439;-93
2022/12/11 03:01:55;;;;;;;40.60;4.07;;;;;;;17.75;nan;100438.84;6141833;23;20458;-93
2022/12/11 03:04:27;;;;;;;32.70;4.37;;;;;;;17.78;nan;100426.47;6140701;23;20440;-94
2022/12/11 03:07:16;;;;;;;37.83;4.20;;;;;;;17.82;nan;100417.44;6163777;23;20490;-93
2022/12/11 03:09:55;;;;;;;42.73;4.47;;;;;;;17.98;nan;100437.03;6145381;23;20795;-94
2022/12/11 03:12:39;;;;;;;45.87;4.30;;;;;;;17.97;nan;100408.56;6167113;23;20417;-93
2022/12/11 03:15:30;;;;;;;41.87;4.27;;;;;;;17.96;nan;100406.88;6143766;23;20415;-94
2022/12/11 03:18:39;;;;;;;43.43;5.90;;;;;;;18.07;nan;100416.19;6144761;23;20478;-94
2022/12/11 03:21:13;;;;;;;49.37;4.80;;;;;;;18.10;nan;100418.44;6167745;23;20401;-96
2022/12/11 03:24:05;;;;;;;39.30;5.23;;;;;;;18.13;nan;100417.94;6166130;23;20409;-96
2022/12/11 03:26:59;;;;;;;43.97;4.27;;;;;;;18.14;nan;100408.56;6168417;23;20405;-93
2022/12/11 03:29:44;;;;;;;55.73;4.80;;;;;;;18.03;nan;100395.66;6117706;23;20409;-93
2022/12/11 03:32:50;;;;;;;49.97;5.03;;;;;;;18.14;nan;100405.78;6054344;23;20419;-92
2022/12/11 03:36:10;;;;;;;54.87;6.50;;;;;;;18.15;nan;100391.69;6055407;23;20441;-93
2022/12/11 03:39:05;;;;;;;41.53;4.83;;;;;;;18.21;nan;100409.22;6074227;23;20415;-93
2022/12/11 03:41:53;;;;;;;44.87;6.13;;;;;;;18.23;nan;100405.13;6028597;23;20419;-94
2022/12/11 03:44:29;;;;;;;37.73;5.43;;;;;;;18.25;nan;100382.75;6052624;23;20447;-93
2022/12/11 03:47:10;;;;;;;38.70;5.77;;;;;;;18.23;nan;100380.22;6054700;23;20455;-93
2022/12/11 03:49:50;;;;;;;43.57;6.07;;;;;;;18.30;nan;100391.94;6032905;23;20418;-93
2022/12/11 03:52:31;;;;;;;66.10;6.33;;;;;;;18.36;nan;100384.56;6032281;23;20419;-92
2022/12/11 03:55:03;;;;;;;45.67;6.90;;;;;;;18.32;nan;100372.31;6028822;23;20418;-94
2022/12/11 03:57:40;;;;;;;47.10;5.47;;;;;;;18.43;nan;100374.16;6111494;23;20439;-92
2022/12/11 04:00:13;;;;;;;46.47;6.23;;;;;;;18.38;nan;100360.25;6137522;23;20418;-94
2022/12/11 04:09:29;;;;;;;44.93;5.70;;;;;;;18.41;nan;100351.44;6130300;23;20420;-93
2022/12/11 04:12:05;;;;;;;46.17;4.87;;;;;;;18.45;nan;100355.38;6082535;23;20422;-93
2022/12/11 04:26:34;;;;;;;47.77;5.90;;;;;;;18.57;nan;100364.38;6091096;23;20458;-93
2022/12/11 04:29:05;;;;;;;57.23;10.30;;;;;;;18.60;nan;100383.28;6085453;23;20414;-94
2022/12/11 04:31:38;;;;;;;74.07;17.20;;;;;;;18.70;nan;100362.34;6082459;23;20469;-92
2022/12/11 04:34:06;;;;;;;60.10;8.30;;;;;;;18.66;nan;100366.75;6079645;23;20417;-93
2022/12/11 04:36:36;;;;;;;63.53;7.00;;;;;;;18.59;nan;100356.69;6080712;23;20458;-93
2022/12/11 04:39:06;;;;;;;48.23;6.83;;;;;;;18.60;nan;100358.38;6057151;23;20414;-93
2022/12/11 04:41:59;;;;;;;53.47;7.60;;;;;;;18.73;nan;100371.00;6079428;23;20418;-94
2022/12/11 04:44:56;;;;;;;61.03;6.80;;;;;;;18.75;nan;100354.13;6102536;23;20829;-94
2022/12/11 04:47:42;;;;;;;41.30;7.10;;;;;;;18.80;nan;100379.13;6102078;23;20418;-94
2022/12/11 04:50:47;;;;;;;30.83;5.53;;;;;;;18.79;nan;100389.34;6102663;23;20417;-95
2022/12/11 04:53:22;;;;;;;54.87;6.73;;;;;;;18.72;nan;100365.72;6128816;23;20402;-94
2022/12/11 04:55:58;;;;;;;68.33;7.17;;;;;;;18.77;nan;100379.63;6126975;23;20412;-93
2022/12/11 04:58:49;;;;;;;67.13;7.77;;;;;;;18.83;nan;100389.69;6079048;23;20506;-94
2022/12/11 05:01:19;;;;;;;52.20;7.00;;;;;;;18.81;nan;100401.03;6135067;23;20471;-94
2022/12/11 05:03:48;;;;;;;58.37;8.07;;;;;;;18.77;nan;100380.47;6079105;23;20429;-94
2022/12/11 05:10:02;;;;;;;59.47;7.40;;;;;;;18.86;nan;100387.22;6128787;23;20418;-94
2022/12/11 05:12:52;;;;;;;66.07;6.50;;;;;;;18.89;nan;100388.63;6126859;23;20410;-93
2022/12/11 05:15:22;;;;;;;61.03;6.67;;;;;;;18.85;nan;100404.97;6102709;23;20398;-93
2022/12/11 05:21:37;;;;;;;60.57;7.63;;;;;;;18.80;nan;100402.13;6131218;23;20370;-92
2022/12/11 05:24:27;;;;;;;51.20;8.07;;;;;;;18.82;nan;100422.09;6079543;23;20449;-94
2022/12/11 05:27:23;;;;;;;67.90;7.07;;;;;;;18.83;nan;100417.38;6102218;23;20414;-93
2022/12/11 05:30:39;;;;;;;66.70;10.20;;;;;;;18.86;nan;100416.84;6150652;23;20445;-94
2022/12/11 05:36:47;;;;;;;63.67;10.30;;;;;;;18.88;nan;100417.44;6128335;23;20860;-91
2022/12/11 05:39:31;;;;;;;48.40;7.87;;;;;;;18.89;nan;100416.34;6078517;23;20424;-92
2022/12/11 05:45:47;;;;;;;85.23;8.40;;;;;;;18.93;nan;100425.81;6128742;23;20453;-92
2022/12/11 05:48:15;;;;;;;73.93;7.87;;;;;;;18.95;nan;100426.41;6079296;23;20418;-93
2022/12/11 05:50:43;;;;;;;51.93;6.90;;;;;;;18.97;nan;100432.53;6078971;23;20972;-94
2022/12/11 05:56:56;;;;;;;69.83;7.27;;;;;;;18.95;nan;100432.78;6127665;23;20394;-92
2022/12/11 05:59:59;;;;;;;72.83;8.60;;;;;;;18.97;nan;100427.81;6126369;23;20535;-93
2022/12/11 06:02:27;;;;;;;61.57;7.13;;;;;;;18.96;nan;100430.84;6135197;23;20433;-93
2022/12/11 06:04:55;;;;;;;54.20;6.90;;;;;;;18.91;nan;100426.06;6078926;23;20521;-93
2022/12/11 06:07:37;;;;;;;64.47;8.87;;;;;;;18.99;nan;100435.88;6102716;23;20410;-94
2022/12/11 06:10:17;;;;;;;69.43;8.30;;;;;;;18.87;nan;100430.44;6101950;23;20421;-93
2022/12/11 06:16:32;;;;;;;61.53;7.80;;;;;;;18.95;nan;100446.63;6127641;23;20433;-93
2022/12/11 06:19:41;;;;;;;63.70;8.60;;;;;;;19.00;nan;100445.84;6102631;23;20410;-92
2022/12/11 06:25:49;;;;;;;62.57;7.80;;;;;;;18.92;nan;100432.44;6127292;23;20474;-93
2022/12/11 06:31:57;;;;;;;44.90;7.07;;;;;;;18.91;nan;100439.06;6128093;23;20393;-93
2022/12/11 06:34:31;;;;;;;61.00;7.57;;;;;;;18.98;nan;100459.13;6102397;23;20484;-93
2022/12/11 06:40:55;;;;;;;54.47;7.67;;;;;;;18.93;nan;100434.13;6127633;23;20463;-93
2022/12/11 06:43:52;;;;;;;50.10;7.30;;;;;;;18.99;nan;100458.03;6101968;23;20779;-94
2022/12/11 06:46:39;;;;;;;50.23;7.43;;;;;;;18.98;nan;100481.28;6125749;23;20449;-93
2022/12/11 06:49:20;;;;;;;53.97;8.47;;;;;;;18.91;nan;100477.84;6125859;23;20420;-94
2022/12/11 06:52:10;;;;;;;46.03;7.60;;;;;;;18.98;nan;100492.38;6101978;23;20418;-94
2022/12/11 06:54:51;;;;;;;49.30;7.80;;;;;;;18.93;nan;100486.75;6153829;23;20440;-92
2022/12/11 06:58:12;;;;;;;65.50;7.70;;;;;;;18.92;nan;100494.22;6102861;23;20477;-94
2022/12/11 07:04:33;;;;;;;72.90;8.63;;;;;;;18.93;nan;100470.13;6127342;23;20814;-93
2022/12/11 07:10:49;;;;;;;55.10;9.17;;;;;;;18.88;nan;100476.41;6128765;23;20369;-93
2022/12/11 07:20:53;;;;;;;70.63;9.43;;;;;;;18.82;nan;100493.25;6129379;23;20361;-92
2022/12/11 07:23:35;;;;;;;69.33;10.60;;;;;;;18.78;nan;100515.06;6079905;23;20414;-92
2022/12/11 07:29:51;;;;;;;53.50;8.57;;;;;;;18.70;nan;100515.47;6130657;23;20397;-93
2022/12/11 07:33:00;;;;;;;56.47;8.27;;;;;;;18.68;nan;100519.59;6103308;23;20497;-94
2022/12/11 07:35:40;;;;;;;68.63;8.87;;;;;;;18.65;nan;100536.72;6152218;23;20421;-96
2022/12/11 07:42:20;;;;;;;63.47;8.17;;;;;;;18.68;nan;100525.13;6130462;23;20364;-94
2022/12/11 07:48:52;;;;;;;78.50;9.50;;;;;;;18.59;nan;100536.63;6131373;23;20366;-95
2022/12/11 07:55:07;;;;;;;74.50;8.10;;;;;;;18.57;nan;100538.78;6130439;23;20390;-95
2022/12/11 07:57:45;;;;;;;65.60;8.03;;;;;;;18.62;nan;100561.06;6082631;23;20480;-95
2022/12/11 08:01:09;;;;;;;77.33;11.10;;;;;;;18.52;nan;100533.16;6132341;23;20869;-94
2022/12/11 08:04:16;;;;;;;51.40;7.70;;;;;;;18.64;nan;100569.09;6154809;23;21011;-94
2022/12/11 08:10:43;;;;;;;;;;;;;;;;;;;;;
2022/12/11 08:21:47;;;;;;;77.47;11.93;;;;;;;18.51;nan;100575.75;6157178;23;20361;-95
2022/12/11 08:36:43;;;;;;;63.30;8.63;;;;;;;18.48;nan;100609.47;6158399;23;20377;-95
2022/12/11 09:29:53;;;;;;;61.33;8.37;;;;;;;18.77;nan;100667.59;5741012;25;20390;-95
2022/12/11 09:36:12;;;;;;;67.23;8.67;;;;;;;18.67;nan;100661.88;5865296;24;20442;-95
2022/12/11 09:42:51;;;;;;;72.33;8.57;;;;;;;18.79;nan;100682.03;5899906;24;20801;-95
2022/12/11 09:45:53;;;;;;;73.70;9.63;;;;;;;18.72;nan;100665.56;6003438;23;20756;-93
2022/12/11 09:48:38;;;;;;;64.57;8.70;;;;;;;18.84;nan;100690.44;6127776;23;20410;-94
2022/12/11 09:51:54;;;;;;;52.83;7.87;;;;;;;18.84;nan;100690.44;6126979;23;20539;-93
2022/12/11 09:55:16;;;;;;;40.10;9.10;;;;;;;18.94;nan;100710.00;6149654;23;20410;-94
2022/12/11 10:01:44;;;;;;;47.13;7.37;;;;;;;19.08;nan;100730.75;6128512;23;20366;-92
2022/12/11 10:04:25;;;;;;;56.83;8.63;;;;;;;19.18;nan;100727.31;6157775;23;20448;-91
2022/12/11 10:07:22;;;;;;;46.57;8.03;;;;;;;19.31;nan;100733.38;6154865;23;20927;-92
2022/12/11 10:10:04;;;;;;;50.30;7.37;;;;;;;19.39;nan;100731.28;6155680;23;20412;-91
2022/12/11 10:12:47;;;;;;;51.67;7.20;;;;;;;19.53;nan;100732.66;6077633;23;20392;-92
2022/12/11 10:15:51;;;;;;;62.93;8.27;;;;;;;19.55;nan;100725.75;6177862;23;20412;-92
2022/12/11 10:18:22;;;;;;;62.90;8.23;;;;;;;19.66;nan;100754.47;6159273;23;20393;-91
2022/12/11 10:20:56;;;;;;;45.40;7.63;;;;;;;19.63;nan;100738.34;6155395;23;20421;-91
2022/12/11 10:23:38;;;;;;;53.53;9.17;;;;;;;19.75;nan;100752.97;6106658;23;20408;-90
2022/12/11 10:26:26;;;;;;;49.00;9.00;;;;;;;19.71;nan;100762.88;6131324;23;20417;-89
2022/12/11 10:29:12;;;;;;;60.03;9.67;;;;;;;19.71;nan;100757.31;6133990;23;20903;-89
2022/12/11 10:31:53;;;;;;;60.73;8.50;;;;;;;19.86;nan;100767.81;6130528;23;20412;-89
2022/12/11 10:35:01;;;;;;;51.33;7.33;;;;;;;19.83;nan;100777.47;6154167;23;20742;-88
2022/12/11 10:37:31;;;;;;;61.90;7.77;;;;;;;19.88;nan;100766.47;6177858;23;20423;-88
2022/12/11 10:39:58;;;;;;;47.43;7.50;;;;;;;19.96;nan;100779.06;6130688;23;20488;-90
2022/12/11 10:42:27;;;;;;;62.20;8.20;;;;;;;19.98;nan;100774.94;6154807;23;20499;-89
2022/12/11 10:44:57;;;;;;;57.97;9.17;;;;;;;20.16;nan;100798.78;6178440;23;20412;-90
2022/12/11 10:47:25;;;;;;;41.70;7.20;;;;;;;20.22;nan;100803.28;6153995;23;20496;-89
2022/12/11 10:49:58;;;;;;;59.03;9.20;;;;;;;20.24;nan;100795.56;6105665;23;20864;-90
2022/12/11 10:52:30;;;;;;;48.77;8.17;;;;;;;20.25;nan;100801.94;6070553;23;20573;-88
2022/12/11 10:54:58;;;;;;;46.63;8.47;;;;;;;20.30;nan;100796.47;6047384;23;20497;-89
2022/12/11 10:57:31;;;;;;;64.30;8.37;;;;;;;20.28;nan;100795.88;6070390;23;20425;-90
2022/12/11 10:59:59;;;;;;;56.33;8.80;;;;;;;20.35;nan;100785.44;6046510;23;20902;-89
2022/12/11 11:02:41;;;;;;;65.80;8.60;;;;;;;20.42;nan;100802.78;6047440;23;20741;-89
2022/12/11 11:05:26;;;;;;;59.57;8.63;;;;;;;20.38;nan;100811.91;6048327;23;20901;-90
2022/12/11 11:08:12;;;;;;;48.20;8.47;;;;;;;20.35;nan;100813.22;6025424;23;20406;-90
2022/12/11 11:10:55;;;;;;;59.27;9.07;;;;;;;20.35;nan;100796.56;6047002;23;20394;-90
2022/12/11 11:13:24;;;;;;;40.50;7.43;;;;;;;20.37;nan;100807.44;6071063;23;20493;-90
2022/12/11 11:16:00;;;;;;;55.50;11.07;;;;;;;20.41;nan;100803.88;6024267;23;20414;-89
2022/12/11 11:18:29;;;;;;;42.67;8.00;;;;;;;20.44;nan;100813.63;6082242;23;20498;-90
2022/12/11 11:21:01;;;;;;;49.37;8.50;;;;;;;20.56;nan;100819.91;6129463;23;20405;-93
2022/12/11 11:23:35;;;;;;;42.27;7.43;;;;;;;20.59;nan;100813.84;6154999;23;20712;-93
2022/12/11 11:26:08;;;;;;;50.23;8.30;;;;;;;20.52;nan;100808.47;6086561;23;20451;-92
2022/12/11 11:28:48;;;;;;;55.33;8.47;;;;;;;20.61;nan;100818.00;6155611;23;20409;-92
2022/12/11 11:31:45;;;;;;;54.80;9.70;;;;;;;20.59;nan;100806.31;6155181;23;20416;-92
2022/12/11 11:34:30;;;;;;;52.37;8.70;;;;;;;20.59;nan;100813.84;6179763;23;20397;-92
2022/12/11 11:37:33;;;;;;;66.43;9.27;;;;;;;20.60;nan;100798.81;6130908;23;20412;-92
2022/12/11 11:40:17;;;;;;;48.87;8.13;;;;;;;20.42;nan;100791.66;6155459;23;20407;-92
2022/12/11 11:43:33;;;;;;;48.57;8.20;;;;;;;20.54;nan;100795.16;6155597;23;20392;-91
2022/12/11 12:09:35;;;;;;;45.83;8.13;;;;;;;20.91;nan;100816.72;6084950;23;20445;-93
2022/12/11 12:31:59;;;;;;;60.77;12.20;;;;;;;21.05;nan;100829.09;6187412;23;20415;-94
2022/12/11 12:34:47;;;;;;;60.67;9.37;;;;;;;20.97;nan;100819.28;6046395;23;20527;-96
2022/12/11 12:37:20;;;;;;;44.33;7.30;;;;;;;21.01;nan;100833.50;5998887;23;20641;-96
2022/12/11 12:40:00;;;;;;;58.47;9.07;;;;;;;21.17;nan;100831.72;6067976;23;20464;-95
2022/12/11 12:46:24;;;;;;;47.97;8.40;;;;;;;21.35;nan;100818.34;6068673;23;20438;-94
2022/12/11 12:48:52;;;;;;;48.50;8.93;;;;;;;21.49;nan;100831.81;6021993;23;20420;-94
2022/12/11 12:51:20;;;;;;;56.13;7.13;;;;;;;21.43;nan;100830.91;5998015;23;20407;-94
2022/12/11 12:53:56;;;;;;;66.30;9.30;;;;;;;21.38;nan;100798.31;5997658;23;20411;-93
2022/12/11 12:56:24;;;;;;;57.77;9.90;;;;;;;21.45;nan;100797.28;5998033;23;20475;-94
2022/12/11 12:58:51;;;;;;;72.57;8.03;;;;;;;21.61;nan;100804.66;5997923;23;20484;-94
2022/12/11 13:01:21;;;;;;;58.00;8.03;;;;;;;21.55;nan;100806.53;6021292;23;20415;-95
2022/12/11 13:03:55;;;;;;;52.87;8.53;;;;;;;21.68;nan;100813.63;6005041;23;20430;-94
2022/12/11 13:06:30;;;;;;;46.63;7.37;;;;;;;21.68;nan;100799.72;6163361;23;20443;-94
2022/12/11 13:13:32;;;;;;;62.97;10.60;;;;;;;21.90;nan;100808.78;6157719;23;20738;-94
2022/12/11 13:19:41;;;;;;;64.27;9.17;;;;;;;22.00;nan;100792.16;6157680;23;20725;-93
2022/12/11 13:25:52;;;;;;;52.47;8.67;;;;;;;22.14;nan;100802.81;6009885;23;20522;-94
2022/12/11 13:32:23;;;;;;;47.10;7.70;;;;;;;22.01;nan;100793.00;6011103;23;20433;-96
2022/12/11 13:35:04;;;;;;;52.53;8.87;;;;;;;21.86;nan;100802.06;5954384;23;20630;-96
2022/12/11 13:37:44;;;;;;;48.40;9.53;;;;;;;21.88;nan;100794.28;5987496;23;20526;-95
2022/12/11 13:44:02;;;;;;;44.90;8.87;;;;;;;21.77;nan;100788.91;6010874;23;20460;-94
2022/12/11 13:46:48;;;;;;;44.03;8.07;;;;;;;21.71;nan;100776.91;5986549;23;20832;-94
2022/12/11 13:53:18;;;;;;;46.33;9.43;;;;;;;21.82;nan;100764.75;6011337;23;20369;-95
2022/12/11 13:56:16;;;;;;;59.33;7.97;;;;;;;21.93;nan;100780.44;5987903;23;20421;-94
2022/12/11 13:58:55;;;;;;;37.00;6.43;;;;;;;21.81;nan;100771.41;5986663;23;20414;-94
2022/12/11 14:02:08;;;;;;;44.37;7.03;;;;;;;21.90;nan;100783.75;5991438;23;20413;-96
2022/12/11 14:08:32;;;;;;;44.67;7.30;;;;;;;21.45;nan;100773.09;6158491;23;20497;-95
2022/12/11 14:15:00;;;;;;;54.60;8.53;;;;;;;21.13;nan;100781.38;6157130;23;20460;-95
2022/12/11 14:33:08;;;;;;;60.13;8.67;;;;;;;21.64;nan;100771.56;6157133;23;20452;-94
2022/12/11 22:41:45;;;;;;;50.27;7.00;;;;;;;18.03;nan;100957.13;6212247;23;20535;-92
2022/12/11 22:44:29;;;;;;;47.97;7.00;;;;;;;18.06;nan;100970.47;6142293;23;20549;-92
2022/12/11 22:46:58;;;;;;;64.50;8.00;;;;;;;17.99;nan;100950.38;6165929;23;20498;-92
2022/12/11 22:49:38;;;;;;;62.97;7.53;;;;;;;18.07;nan;100958.34;6143403;23;20410;-92
2022/12/11 22:52:21;;;;;;;66.07;8.70;;;;;;;18.06;nan;100959.41;6190645;23;20414;-92
2022/12/11 22:54:53;;;;;;;43.53;6.60;;;;;;;18.08;nan;100971.09;6166028;23;20658;-92
2022/12/11 22:57:45;;;;;;;46.63;6.30;;;;;;;18.08;nan;100976.63;6191069;23;20450;-90
2022/12/11 23:00:47;;;;;;;48.27;7.40;;;;;;;18.08;nan;100993.22;6189939;23;20862;-93
2022/12/11 23:03:19;;;;;;;47.80;6.97;;;;;;;18.02;nan;100991.38;6190115;23;20484;-91
2022/12/11 23:05:55;;;;;;;63.30;7.27;;;;;;;18.03;nan;100995.84;6141640;23;20392;-92
2022/12/11 23:08:43;;;;;;;55.43;7.70;;;;;;;18.05;nan;100983.47;6144171;23;20499;-92
2022/12/11 23:11:25;;;;;;;65.03;8.30;;;;;;;18.07;nan;100967.47;6215574;23;20841;-91
2022/12/11 23:14:17;;;;;;;61.77;8.00;;;;;;;18.04;nan;100961.56;6176332;23;20421;-91
2022/12/11 23:16:46;;;;;;;68.83;8.80;;;;;;;18.05;nan;100946.66;6141993;23;20482;-93
2022/12/11 23:19:23;;;;;;;50.43;7.10;;;;;;;18.06;nan;100942.81;6166039;23;20486;-92
2022/12/11 23:21:54;;;;;;;95.13;8.67;;;;;;;18.00;nan;100932.69;6191461;23;20713;-93
2022/12/11 23:24:31;;;;;;;58.67;9.07;;;;;;;18.03;nan;100941.38;6141824;23;20465;-92
2022/12/11 23:27:03;;;;;;;74.63;9.20;;;;;;;18.02;nan;100942.44;6189699;23;20509;-92
2022/12/11 23:29:44;;;;;;;54.27;7.50;;;;;;;17.98;nan;100932.94;6190973;23;20391;-93
2022/12/11 23:32:31;;;;;;;50.87;7.90;;;;;;;17.99;nan;100939.31;6166397;23;20452;-91
2022/12/11 23:35:22;;;;;;;72.17;8.53;;;;;;;17.95;nan;100931.47;6190311;23;20415;-92
2022/12/11 23:37:55;;;;;;;36.10;6.67;;;;;;;17.94;nan;100943.63;6190457;23;20406;-92
2022/12/11 23:40:24;;;;;;;55.10;8.47;;;;;;;17.94;nan;100946.38;6140899;23;21116;-93
2022/12/11 23:46:24;;;;;;;58.40;8.73;;;;;;;17.89;nan;100932.44;6216319;23;20467;-92
2022/12/11 23:48:55;;;;;;;61.53;8.57;;;;;;;17.91;nan;100935.78;6141812;23;20388;-90
2022/12/11 23:51:29;;;;;;;48.50;8.70;;;;;;;17.86;nan;100935.69;6190832;23;20397;-92
2022/12/11 23:54:17;;;;;;;72.07;7.90;;;;;;;17.91;nan;100946.84;6143027;23;20399;-90
2022/12/11 23:56:48;;;;;;;38.47;8.70;;;;;;;17.90;nan;100945.16;6192281;23;20462;-91
2022/12/11 23:59:23;;;;;;;53.00;8.00;;;;;;;17.86;nan;100938.44;6192675;23;20475;-92
